Flight Track Log - Related Links

Times and Time Zones

All times are in EDT time to prevent confusion due to time zone crossing. See the N152SR flight status page for this flight to view local times or setup timezone preferences in your user account.

Time Position Orientation Groundspeed Altitude Reporting Facility
EDT Latitude Longitude Course Direction KTS MPH feet Rate Location/Type
Sun 12:57:04 PM 40.9667 -74.1000 72° East 137 158 2,500  Level New York TRACON
Sun 12:58:04 PM 40.9833 -74.0333 72° East 158 182 2,500  Level New York TRACON
Sun 12:59:04 PM 40.9833 -73.9833 90° East 159 183 2,500 50 Level New York TRACON
Sun 01:00:04 PM 40.9833 -73.9167 90° East 161 185 2,600  Climbing New York TRACON
Sun 01:01:04 PM 40.9833 -73.8500 90° East 161 185 2,500 -50 Descending New York TRACON
Sun 01:02:04 PM 40.9667 -73.8000 114° Southeast 163 188 2,500  Level New York TRACON
Sun 01:03:04 PM 40.9667 -73.7333 90° East 164 189 2,500  Level New York TRACON
Sun 01:04:04 PM 40.9667 -73.6833 90° East 162 186 2,500  Level New York TRACON
Sun 01:05:04 PM 40.9500 -73.6167 108° East 161 185 2,500  Level New York TRACON
Sun 01:06:04 PM 40.9500 -73.5667 90° East 162 186 2,500 50 Level New York TRACON
Sun 01:07:04 PM 40.9500 -73.5000 90° East 166 191 2,600  Climbing New York TRACON
Sun 01:08:04 PM 40.9500 -73.4333 90° East 164 189 2,500 -50 Descending New York TRACON
Sun 01:09:04 PM 40.9500 -73.3833 90° East 164 189 2,500  Level New York TRACON
Sun 01:10:04 PM 40.9500 -73.3167 90° East 163 188 2,500  Level New York TRACON
Sun 01:11:04 PM 40.9333 -73.2667 114° Southeast 168 193 2,500  Level New York TRACON
Sun 01:12:04 PM 40.9333 -73.2000 90° East 168 193 2,500  Level New York TRACON
Sun 01:13:04 PM 40.9500 -73.1333 72° East 168 193 2,500  Level New York TRACON
Sun 01:14:04 PM 40.9500 -73.0833 90° East 169 194 2,500  Level New York TRACON
Sun 01:15:04 PM 40.9500 -73.0167 90° East 165 190 2,500 50 Level New York TRACON
Sun 01:16:04 PM 40.9500 -72.9500 90° East 165 190 2,600 50 Climbing New York TRACON
Sun 01:17:04 PM 40.9500 -72.9000 90° East 166 191 2,600 -50 Level New York TRACON
Sun 01:18:04 PM 40.9500 -72.8333 90° East 166 191 2,500 -50 Descending New York TRACON
Sun 01:19:04 PM 40.9500 -72.7667 90° East 167 192 2,500  Level New York TRACON
Sun 01:20:04 PM 40.9500 -72.7167 90° East 166 191 2,500  Level New York TRACON
Sun 01:21:04 PM 40.9500 -72.6500 90° East 163 188 2,500  Level New York TRACON
Sun 01:22:04 PM 40.9500 -72.6000 90° East 163 188 2,500  Level New York TRACON
Sun 01:23:04 PM 40.9500 -72.5333 90° East 164 189 2,500  Level New York TRACON
Sun 01:25:00 PM 40.9501 -72.4306 90° East  Level FlightAware Approximate
Sun 01:32:00 PM 40.9500 -72.2500 90° East  Level FlightAware Approximate
Sun 01:33:00 PM 40.9594 -72.2517 352° North  Level Estimated
Sun 01:34:00 PM 40.9594 -72.2517 90° East  Level Estimated
Sun 01:35:00 PM 40.9594 -72.2517 North  Level Estimated
Sun 01:36:00 PM 40.9594 -72.2517 90° East  Level Estimated
Sun 01:37:00 PM 40.9594 -72.2517 North  Level Estimated
Sun 01:38:00 PM 40.9594 -72.2517 90° East  Level Estimated
Sun 01:39:00 PM 40.9594 -72.2517 North  Level Estimated
Sun 01:40:00 PM 40.9594 -72.2517 90° East  Level Estimated
Sun 01:41:00 PM 40.9594 -72.2517 North  Level Estimated
Sun 01:42:00 PM 40.9594 -72.2517 90° East  Level Estimated
Sun 01:43:00 PM 40.9594 -72.2517 North  Level Estimated
Sun 01:44:00 PM 40.9594 -72.2517 90° East  Level Estimated
Sun 01:45:00 PM 40.9594 -72.2517 North  Level Estimated

Login

Don't have an account? Register now (free) for customized features, flight alerts, and more!